sensor_id;sensor_type;location;lat;lon;timestamp;P1;durP1;ratioP1;P2;durP2;ratioP2
4468;SDS011;2247;42.666;23.292;2023-04-10T00:01:14;8.43;;;6.60;;
4468;SDS011;2247;42.666;23.292;2023-04-10T00:03:41;7.63;;;6.43;;
4468;SDS011;2247;42.666;23.292;2023-04-10T00:06:08;6.57;;;5.57;;
4468;SDS011;2247;42.666;23.292;2023-04-10T00:08:35;7.63;;;6.70;;
4468;SDS011;2247;42.666;23.292;2023-04-10T00:11:03;6.93;;;5.73;;
4468;SDS011;2247;42.666;23.292;2023-04-10T00:13:32;6.27;;;5.67;;
4468;SDS011;2247;42.666;23.292;2023-04-10T00:15:59;8.23;;;5.80;;
4468;SDS011;2247;42.666;23.292;2023-04-10T00:18:26;6.30;;;5.40;;
4468;SDS011;2247;42.666;23.292;2023-04-10T00:20:53;6.20;;;5.20;;
4468;SDS011;2247;42.666;23.292;2023-04-10T00:23:20;6.20;;;4.80;;
4468;SDS011;2247;42.666;23.292;2023-04-10T00:25:48;6.07;;;5.03;;
4468;SDS011;2247;42.666;23.292;2023-04-10T00:28:15;4.60;;;4.20;;
4468;SDS011;2247;42.666;23.292;2023-04-10T00:30:43;7.20;;;5.03;;
4468;SDS011;2247;42.666;23.292;2023-04-10T00:33:10;5.10;;;4.60;;
4468;SDS011;2247;42.666;23.292;2023-04-10T00:35:37;4.63;;;4.13;;
4468;SDS011;2247;42.666;23.292;2023-04-10T00:38:04;5.47;;;4.70;;
4468;SDS011;2247;42.666;23.292;2023-04-10T00:40:30;6.00;;;4.80;;
4468;SDS011;2247;42.666;23.292;2023-04-10T00:42:57;4.93;;;4.40;;
4468;SDS011;2247;42.666;23.292;2023-04-10T00:45:24;5.63;;;5.03;;
4468;SDS011;2247;42.666;23.292;2023-04-10T00:47:53;6.03;;;5.10;;
4468;SDS011;2247;42.666;23.292;2023-04-10T00:50:20;7.10;;;5.17;;
4468;SDS011;2247;42.666;23.292;2023-04-10T00:52:47;6.10;;;5.30;;
4468;SDS011;2247;42.666;23.292;2023-04-10T00:55:15;5.30;;;4.60;;
4468;SDS011;2247;42.666;23.292;2023-04-10T00:57:43;6.60;;;5.20;;
4468;SDS011;2247;42.666;23.292;2023-04-10T01:00:11;7.43;;;5.77;;
4468;SDS011;2247;42.666;23.292;2023-04-10T01:02:39;5.53;;;4.33;;
4468;SDS011;2247;42.666;23.292;2023-04-10T01:05:08;5.20;;;4.70;;
4468;SDS011;2247;42.666;23.292;2023-04-10T01:07:41;6.20;;;4.50;;
4468;SDS011;2247;42.666;23.292;2023-04-10T01:10:17;5.80;;;5.20;;
4468;SDS011;2247;42.666;23.292;2023-04-10T01:12:53;5.93;;;4.97;;
4468;SDS011;2247;42.666;23.292;2023-04-10T01:15:26;9.00;;;4.90;;
4468;SDS011;2247;42.666;23.292;2023-04-10T01:17:57;7.40;;;5.47;;
4468;SDS011;2247;42.666;23.292;2023-04-10T01:20:31;6.10;;;5.40;;
4468;SDS011;2247;42.666;23.292;2023-04-10T01:26:07;5.67;;;4.17;;
4468;SDS011;2247;42.666;23.292;2023-04-10T01:31:26;6.07;;;4.37;;
4468;SDS011;2247;42.666;23.292;2023-04-10T01:33:57;5.47;;;4.50;;
4468;SDS011;2247;42.666;23.292;2023-04-10T01:36:29;5.03;;;4.53;;
4468;SDS011;2247;42.666;23.292;2023-04-10T01:39:01;5.67;;;5.10;;
4468;SDS011;2247;42.666;23.292;2023-04-10T01:41:30;6.23;;;4.23;;
4468;SDS011;2247;42.666;23.292;2023-04-10T01:43:59;6.47;;;5.27;;
4468;SDS011;2247;42.666;23.292;2023-04-10T01:46:28;5.20;;;4.17;;
4468;SDS011;2247;42.666;23.292;2023-04-10T01:48:57;5.10;;;4.60;;
4468;SDS011;2247;42.666;23.292;2023-04-10T01:51:26;5.80;;;4.70;;
4468;SDS011;2247;42.666;23.292;2023-04-10T01:53:54;4.67;;;4.27;;
4468;SDS011;2247;42.666;23.292;2023-04-10T01:56:22;4.60;;;4.20;;
4468;SDS011;2247;42.666;23.292;2023-04-10T01:58:48;5.20;;;4.33;;
4468;SDS011;2247;42.666;23.292;2023-04-10T02:01:20;6.40;;;4.90;;
4468;SDS011;2247;42.666;23.292;2023-04-10T02:03:47;5.00;;;4.50;;
4468;SDS011;2247;42.666;23.292;2023-04-10T02:06:16;5.30;;;4.40;;
4468;SDS011;2247;42.666;23.292;2023-04-10T02:08:53;5.40;;;4.33;;
4468;SDS011;2247;42.666;23.292;2023-04-10T02:11:27;4.10;;;3.77;;
4468;SDS011;2247;42.666;23.292;2023-04-10T02:14:00;5.13;;;4.03;;
4468;SDS011;2247;42.666;23.292;2023-04-10T02:16:32;8.33;;;4.20;;
4468;SDS011;2247;42.666;23.292;2023-04-10T02:18:59;4.87;;;4.37;;
4468;SDS011;2247;42.666;23.292;2023-04-10T02:21:28;11.80;;;4.23;;
4468;SDS011;2247;42.666;23.292;2023-04-10T02:23:55;5.33;;;4.77;;
4468;SDS011;2247;42.666;23.292;2023-04-10T02:26:23;4.70;;;4.30;;
4468;SDS011;2247;42.666;23.292;2023-04-10T02:28:50;4.60;;;4.20;;
4468;SDS011;2247;42.666;23.292;2023-04-10T02:31:17;5.03;;;4.53;;
4468;SDS011;2247;42.666;23.292;2023-04-10T02:33:46;5.13;;;4.50;;
4468;SDS011;2247;42.666;23.292;2023-04-10T02:36:13;5.77;;;4.50;;
4468;SDS011;2247;42.666;23.292;2023-04-10T02:38:39;12.20;;;4.80;;
4468;SDS011;2247;42.666;23.292;2023-04-10T02:41:06;5.60;;;4.60;;
4468;SDS011;2247;42.666;23.292;2023-04-10T02:43:33;5.13;;;4.63;;
4468;SDS011;2247;42.666;23.292;2023-04-10T02:46:00;4.87;;;4.40;;
4468;SDS011;2247;42.666;23.292;2023-04-10T02:48:27;5.17;;;4.67;;
4468;SDS011;2247;42.666;23.292;2023-04-10T02:50:58;6.43;;;5.60;;
4468;SDS011;2247;42.666;23.292;2023-04-10T02:53:25;6.50;;;4.80;;
4468;SDS011;2247;42.666;23.292;2023-04-10T02:55:52;5.43;;;4.67;;
4468;SDS011;2247;42.666;23.292;2023-04-10T02:58:19;6.17;;;5.30;;
4468;SDS011;2247;42.666;23.292;2023-04-10T03:00:47;5.23;;;4.73;;
4468;SDS011;2247;42.666;23.292;2023-04-10T03:03:15;5.53;;;4.60;;
4468;SDS011;2247;42.666;23.292;2023-04-10T03:05:42;4.87;;;4.40;;
4468;SDS011;2247;42.666;23.292;2023-04-10T03:08:12;5.33;;;4.53;;
4468;SDS011;2247;42.666;23.292;2023-04-10T03:10:39;5.60;;;4.80;;
4468;SDS011;2247;42.666;23.292;2023-04-10T03:13:08;6.00;;;5.03;;
4468;SDS011;2247;42.666;23.292;2023-04-10T03:15:35;6.10;;;4.47;;
4468;SDS011;2247;42.666;23.292;2023-04-10T03:18:02;4.97;;;4.47;;
4468;SDS011;2247;42.666;23.292;2023-04-10T03:20:29;5.20;;;4.70;;
4468;SDS011;2247;42.666;23.292;2023-04-10T03:22:57;5.27;;;4.77;;
4468;SDS011;2247;42.666;23.292;2023-04-10T03:25:25;5.97;;;5.17;;
4468;SDS011;2247;42.666;23.292;2023-04-10T03:27:52;5.43;;;4.70;;
4468;SDS011;2247;42.666;23.292;2023-04-10T03:30:19;5.13;;;4.63;;
4468;SDS011;2247;42.666;23.292;2023-04-10T03:32:46;7.07;;;5.70;;
4468;SDS011;2247;42.666;23.292;2023-04-10T03:35:12;5.80;;;5.00;;
4468;SDS011;2247;42.666;23.292;2023-04-10T03:37:39;5.47;;;4.90;;
4468;SDS011;2247;42.666;23.292;2023-04-10T03:40:08;7.40;;;5.70;;
4468;SDS011;2247;42.666;23.292;2023-04-10T03:42:37;6.30;;;5.13;;
4468;SDS011;2247;42.666;23.292;2023-04-10T03:45:04;6.27;;;5.57;;
4468;SDS011;2247;42.666;23.292;2023-04-10T03:47:32;7.10;;;5.87;;
4468;SDS011;2247;42.666;23.292;2023-04-10T03:49:59;6.80;;;5.93;;
4468;SDS011;2247;42.666;23.292;2023-04-10T03:52:26;6.53;;;5.53;;
4468;SDS011;2247;42.666;23.292;2023-04-10T03:54:52;7.90;;;6.33;;
4468;SDS011;2247;42.666;23.292;2023-04-10T03:57:20;7.60;;;6.23;;
4468;SDS011;2247;42.666;23.292;2023-04-10T03:59:48;12.03;;;6.73;;
4468;SDS011;2247;42.666;23.292;2023-04-10T04:02:16;8.20;;;6.47;;
4468;SDS011;2247;42.666;23.292;2023-04-10T04:04:43;9.30;;;6.73;;
4468;SDS011;2247;42.666;23.292;2023-04-10T04:07:11;10.40;;;6.70;;
4468;SDS011;2247;42.666;23.292;2023-04-10T04:09:40;8.80;;;6.73;;
4468;SDS011;2247;42.666;23.292;2023-04-10T04:12:23;10.60;;;7.83;;
4468;SDS011;2247;42.666;23.292;2023-04-10T04:20:07;10.83;;;6.90;;
4468;SDS011;2247;42.666;23.292;2023-04-10T04:22:35;12.03;;;7.83;;
4468;SDS011;2247;42.666;23.292;2023-04-10T04:25:02;11.20;;;8.07;;
4468;SDS011;2247;42.666;23.292;2023-04-10T04:27:32;12.13;;;8.27;;
4468;SDS011;2247;42.666;23.292;2023-04-10T04:29:59;10.10;;;7.43;;
4468;SDS011;2247;42.666;23.292;2023-04-10T04:32:26;9.83;;;7.53;;
4468;SDS011;2247;42.666;23.292;2023-04-10T04:34:53;10.53;;;8.00;;
4468;SDS011;2247;42.666;23.292;2023-04-10T04:37:21;10.77;;;7.93;;
4468;SDS011;2247;42.666;23.292;2023-04-10T04:39:48;9.67;;;7.53;;
4468;SDS011;2247;42.666;23.292;2023-04-10T04:42:15;9.97;;;7.97;;
4468;SDS011;2247;42.666;23.292;2023-04-10T04:44:42;15.13;;;8.20;;
4468;SDS011;2247;42.666;23.292;2023-04-10T04:47:09;12.43;;;8.60;;
4468;SDS011;2247;42.666;23.292;2023-04-10T04:49:36;10.47;;;7.53;;
4468;SDS011;2247;42.666;23.292;2023-04-10T04:52:03;10.70;;;7.13;;
4468;SDS011;2247;42.666;23.292;2023-04-10T04:54:31;10.60;;;7.37;;
4468;SDS011;2247;42.666;23.292;2023-04-10T04:56:59;13.83;;;8.20;;
4468;SDS011;2247;42.666;23.292;2023-04-10T04:59:26;9.80;;;7.20;;
4468;SDS011;2247;42.666;23.292;2023-04-10T05:01:53;10.03;;;7.50;;
4468;SDS011;2247;42.666;23.292;2023-04-10T05:04:20;10.57;;;7.70;;
4468;SDS011;2247;42.666;23.292;2023-04-10T05:06:47;9.93;;;7.73;;
4468;SDS011;2247;42.666;23.292;2023-04-10T05:09:14;9.30;;;7.30;;
4468;SDS011;2247;42.666;23.292;2023-04-10T05:11:42;9.33;;;7.03;;
4468;SDS011;2247;42.666;23.292;2023-04-10T05:14:09;15.57;;;8.10;;
4468;SDS011;2247;42.666;23.292;2023-04-10T05:16:36;11.37;;;6.73;;
4468;SDS011;2247;42.666;23.292;2023-04-10T05:19:03;9.57;;;7.00;;
4468;SDS011;2247;42.666;23.292;2023-04-10T05:21:30;16.27;;;7.20;;
4468;SDS011;2247;42.666;23.292;2023-04-10T05:23:57;8.43;;;7.00;;
4468;SDS011;2247;42.666;23.292;2023-04-10T05:26:24;8.10;;;7.23;;
4468;SDS011;2247;42.666;23.292;2023-04-10T05:28:52;12.43;;;7.40;;
4468;SDS011;2247;42.666;23.292;2023-04-10T05:31:19;11.60;;;8.20;;
4468;SDS011;2247;42.666;23.292;2023-04-10T05:33:46;9.57;;;7.70;;
4468;SDS011;2247;42.666;23.292;2023-04-10T05:36:13;12.27;;;7.60;;
4468;SDS011;2247;42.666;23.292;2023-04-10T05:38:39;10.97;;;8.30;;
4468;SDS011;2247;42.666;23.292;2023-04-10T05:41:07;10.03;;;7.40;;
4468;SDS011;2247;42.666;23.292;2023-04-10T05:43:33;13.43;;;7.63;;
4468;SDS011;2247;42.666;23.292;2023-04-10T05:46:04;16.10;;;7.73;;
4468;SDS011;2247;42.666;23.292;2023-04-10T05:48:32;10.80;;;7.83;;
4468;SDS011;2247;42.666;23.292;2023-04-10T05:50:59;11.10;;;8.60;;
4468;SDS011;2247;42.666;23.292;2023-04-10T05:53:27;18.43;;;8.70;;
4468;SDS011;2247;42.666;23.292;2023-04-10T05:55:56;19.33;;;9.57;;
4468;SDS011;2247;42.666;23.292;2023-04-10T05:58:23;15.60;;;8.80;;
4468;SDS011;2247;42.666;23.292;2023-04-10T06:00:51;15.73;;;8.70;;
4468;SDS011;2247;42.666;23.292;2023-04-10T06:03:19;13.37;;;8.43;;
4468;SDS011;2247;42.666;23.292;2023-04-10T06:05:46;11.50;;;8.20;;
4468;SDS011;2247;42.666;23.292;2023-04-10T06:08:13;14.60;;;9.00;;
4468;SDS011;2247;42.666;23.292;2023-04-10T06:10:40;14.20;;;8.13;;
4468;SDS011;2247;42.666;23.292;2023-04-10T06:13:06;10.63;;;8.13;;
4468;SDS011;2247;42.666;23.292;2023-04-10T06:15:33;11.70;;;8.70;;
4468;SDS011;2247;42.666;23.292;2023-04-10T06:18:00;9.87;;;7.93;;
4468;SDS011;2247;42.666;23.292;2023-04-10T06:20:30;11.40;;;8.53;;
4468;SDS011;2247;42.666;23.292;2023-04-10T06:22:57;10.67;;;8.43;;
4468;SDS011;2247;42.666;23.292;2023-04-10T06:25:24;11.83;;;8.67;;
4468;SDS011;2247;42.666;23.292;2023-04-10T06:27:51;11.87;;;8.70;;
4468;SDS011;2247;42.666;23.292;2023-04-10T06:30:18;11.80;;;9.27;;
4468;SDS011;2247;42.666;23.292;2023-04-10T06:32:45;11.13;;;8.30;;
4468;SDS011;2247;42.666;23.292;2023-04-10T06:35:12;10.93;;;8.57;;
4468;SDS011;2247;42.666;23.292;2023-04-10T06:37:40;21.30;;;8.90;;
4468;SDS011;2247;42.666;23.292;2023-04-10T06:40:08;13.47;;;9.93;;
4468;SDS011;2247;42.666;23.292;2023-04-10T06:42:36;15.07;;;8.07;;
4468;SDS011;2247;42.666;23.292;2023-04-10T06:45:03;13.27;;;8.77;;
4468;SDS011;2247;42.666;23.292;2023-04-10T06:47:31;13.60;;;9.33;;
4468;SDS011;2247;42.666;23.292;2023-04-10T06:49:57;12.97;;;9.27;;
4468;SDS011;2247;42.666;23.292;2023-04-10T06:52:24;12.60;;;8.53;;
4468;SDS011;2247;42.666;23.292;2023-04-10T06:54:53;12.57;;;8.47;;
4468;SDS011;2247;42.666;23.292;2023-04-10T06:57:20;13.07;;;9.20;;
4468;SDS011;2247;42.666;23.292;2023-04-10T06:59:47;13.83;;;9.27;;
4468;SDS011;2247;42.666;23.292;2023-04-10T07:02:14;24.83;;;9.27;;
4468;SDS011;2247;42.666;23.292;2023-04-10T07:04:41;11.10;;;9.40;;
4468;SDS011;2247;42.666;23.292;2023-04-10T07:07:08;11.27;;;8.30;;
4468;SDS011;2247;42.666;23.292;2023-04-10T07:09:36;16.70;;;9.30;;
4468;SDS011;2247;42.666;23.292;2023-04-10T07:12:04;11.57;;;9.00;;
4468;SDS011;2247;42.666;23.292;2023-04-10T07:14:32;14.33;;;9.60;;
4468;SDS011;2247;42.666;23.292;2023-04-10T07:16:59;13.80;;;9.90;;
4468;SDS011;2247;42.666;23.292;2023-04-10T07:19:27;15.57;;;10.10;;
4468;SDS011;2247;42.666;23.292;2023-04-10T07:21:54;15.00;;;9.50;;
4468;SDS011;2247;42.666;23.292;2023-04-10T07:24:21;12.37;;;9.70;;
4468;SDS011;2247;42.666;23.292;2023-04-10T07:26:49;12.23;;;9.40;;
4468;SDS011;2247;42.666;23.292;2023-04-10T07:29:18;13.50;;;9.30;;
4468;SDS011;2247;42.666;23.292;2023-04-10T07:31:45;12.70;;;9.20;;
4468;SDS011;2247;42.666;23.292;2023-04-10T07:34:12;13.07;;;10.13;;
4468;SDS011;2247;42.666;23.292;2023-04-10T07:36:39;14.57;;;10.13;;
4468;SDS011;2247;42.666;23.292;2023-04-10T07:39:06;12.77;;;9.50;;
4468;SDS011;2247;42.666;23.292;2023-04-10T07:41:33;12.63;;;9.90;;
4468;SDS011;2247;42.666;23.292;2023-04-10T07:44:00;12.73;;;9.90;;
4468;SDS011;2247;42.666;23.292;2023-04-10T07:46:29;12.33;;;9.83;;
4468;SDS011;2247;42.666;23.292;2023-04-10T07:48:55;13.57;;;9.90;;
4468;SDS011;2247;42.666;23.292;2023-04-10T07:51:22;15.70;;;9.00;;
4468;SDS011;2247;42.666;23.292;2023-04-10T07:53:50;14.57;;;10.47;;
4468;SDS011;2247;42.666;23.292;2023-04-10T07:56:17;14.70;;;9.33;;
4468;SDS011;2247;42.666;23.292;2023-04-10T07:58:45;14.80;;;9.67;;
4468;SDS011;2247;42.666;23.292;2023-04-10T08:01:13;13.33;;;10.17;;
4468;SDS011;2247;42.666;23.292;2023-04-10T08:03:42;17.23;;;10.33;;
4468;SDS011;2247;42.666;23.292;2023-04-10T08:06:10;13.80;;;10.27;;
4468;SDS011;2247;42.666;23.292;2023-04-10T08:08:38;13.97;;;9.67;;
4468;SDS011;2247;42.666;23.292;2023-04-10T08:11:06;14.00;;;10.40;;
4468;SDS011;2247;42.666;23.292;2023-04-10T08:13:47;15.20;;;11.37;;
4468;SDS011;2247;42.666;23.292;2023-04-10T08:16:13;11.87;;;9.60;;
4468;SDS011;2247;42.666;23.292;2023-04-10T08:18:42;17.03;;;11.00;;
4468;SDS011;2247;42.666;23.292;2023-04-10T08:21:09;15.20;;;11.00;;
4468;SDS011;2247;42.666;23.292;2023-04-10T08:23:36;18.47;;;11.10;;
4468;SDS011;2247;42.666;23.292;2023-04-10T08:26:03;14.47;;;10.30;;
4468;SDS011;2247;42.666;23.292;2023-04-10T08:28:30;18.70;;;11.90;;
4468;SDS011;2247;42.666;23.292;2023-04-10T08:30:57;13.50;;;9.90;;
4468;SDS011;2247;42.666;23.292;2023-04-10T08:33:25;15.47;;;10.70;;
4468;SDS011;2247;42.666;23.292;2023-04-10T08:35:53;14.20;;;10.30;;
4468;SDS011;2247;42.666;23.292;2023-04-10T08:38:20;15.63;;;10.30;;
4468;SDS011;2247;42.666;23.292;2023-04-10T08:40:49;15.23;;;10.20;;
4468;SDS011;2247;42.666;23.292;2023-04-10T08:43:16;13.57;;;10.20;;
4468;SDS011;2247;42.666;23.292;2023-04-10T08:45:43;15.03;;;10.80;;
4468;SDS011;2247;42.666;23.292;2023-04-10T08:48:10;14.33;;;10.10;;
4468;SDS011;2247;42.666;23.292;2023-04-10T08:50:40;14.83;;;10.23;;
4468;SDS011;2247;42.666;23.292;2023-04-10T08:53:09;15.00;;;9.97;;
4468;SDS011;2247;42.666;23.292;2023-04-10T08:55:38;16.50;;;10.37;;
4468;SDS011;2247;42.666;23.292;2023-04-10T08:58:05;15.73;;;10.37;;
4468;SDS011;2247;42.666;23.292;2023-04-10T09:00:33;15.20;;;10.00;;
4468;SDS011;2247;42.666;23.292;2023-04-10T09:03:02;14.50;;;9.90;;
4468;SDS011;2247;42.666;23.292;2023-04-10T09:05:34;15.73;;;10.03;;
4468;SDS011;2247;42.666;23.292;2023-04-10T09:08:01;14.63;;;10.00;;
4468;SDS011;2247;42.666;23.292;2023-04-10T09:10:29;15.07;;;10.33;;
4468;SDS011;2247;42.666;23.292;2023-04-10T09:12:56;12.63;;;9.03;;
4468;SDS011;2247;42.666;23.292;2023-04-10T09:15:23;13.23;;;9.53;;
4468;SDS011;2247;42.666;23.292;2023-04-10T09:17:54;11.10;;;9.20;;
4468;SDS011;2247;42.666;23.292;2023-04-10T09:20:23;12.67;;;9.50;;
4468;SDS011;2247;42.666;23.292;2023-04-10T09:22:50;13.17;;;9.50;;
4468;SDS011;2247;42.666;23.292;2023-04-10T09:25:27;12.27;;;8.90;;
4468;SDS011;2247;42.666;23.292;2023-04-10T09:28:00;12.73;;;9.77;;
4468;SDS011;2247;42.666;23.292;2023-04-10T09:30:32;15.87;;;9.77;;
4468;SDS011;2247;42.666;23.292;2023-04-10T09:33:01;14.63;;;9.53;;
4468;SDS011;2247;42.666;23.292;2023-04-10T09:35:34;12.43;;;9.57;;
4468;SDS011;2247;42.666;23.292;2023-04-10T09:38:13;9.80;;;7.97;;
4468;SDS011;2247;42.666;23.292;2023-04-10T09:40:42;9.80;;;8.33;;
4468;SDS011;2247;42.666;23.292;2023-04-10T09:43:20;22.63;;;9.07;;
4468;SDS011;2247;42.666;23.292;2023-04-10T09:45:51;11.87;;;9.30;;
4468;SDS011;2247;42.666;23.292;2023-04-10T09:48:20;16.60;;;9.33;;
4468;SDS011;2247;42.666;23.292;2023-04-10T09:50:48;13.27;;;9.20;;
4468;SDS011;2247;42.666;23.292;2023-04-10T09:53:15;10.30;;;8.90;;
4468;SDS011;2247;42.666;23.292;2023-04-10T09:55:46;12.50;;;9.67;;
4468;SDS011;2247;42.666;23.292;2023-04-10T09:58:16;10.60;;;8.17;;
4468;SDS011;2247;42.666;23.292;2023-04-10T10:00:43;11.20;;;8.50;;
4468;SDS011;2247;42.666;23.292;2023-04-10T10:03:12;10.57;;;8.57;;
4468;SDS011;2247;42.666;23.292;2023-04-10T10:05:40;12.13;;;9.90;;
4468;SDS011;2247;42.666;23.292;2023-04-10T10:08:08;13.57;;;10.33;;
4468;SDS011;2247;42.666;23.292;2023-04-10T10:10:36;12.13;;;9.30;;
4468;SDS011;2247;42.666;23.292;2023-04-10T10:13:07;13.13;;;8.73;;
4468;SDS011;2247;42.666;23.292;2023-04-10T10:15:37;8.80;;;7.53;;
4468;SDS011;2247;42.666;23.292;2023-04-10T10:18:12;9.53;;;7.80;;
4468;SDS011;2247;42.666;23.292;2023-04-10T10:20:46;8.67;;;6.93;;
4468;SDS011;2247;42.666;23.292;2023-04-10T10:23:15;10.90;;;6.83;;
4468;SDS011;2247;42.666;23.292;2023-04-10T10:25:44;9.50;;;8.17;;
4468;SDS011;2247;42.666;23.292;2023-04-10T10:28:13;8.63;;;7.47;;
4468;SDS011;2247;42.666;23.292;2023-04-10T10:30:42;12.93;;;8.57;;
4468;SDS011;2247;42.666;23.292;2023-04-10T10:33:10;9.20;;;7.70;;
4468;SDS011;2247;42.666;23.292;2023-04-10T10:35:39;8.60;;;7.60;;
4468;SDS011;2247;42.666;23.292;2023-04-10T10:38:07;9.97;;;8.60;;
4468;SDS011;2247;42.666;23.292;2023-04-10T10:40:37;10.70;;;8.03;;
4468;SDS011;2247;42.666;23.292;2023-04-10T10:43:13;8.37;;;7.47;;
4468;SDS011;2247;42.666;23.292;2023-04-10T10:45:48;9.13;;;7.67;;
4468;SDS011;2247;42.666;23.292;2023-04-10T10:48:19;11.60;;;8.10;;
4468;SDS011;2247;42.666;23.292;2023-04-10T10:50:50;8.73;;;7.20;;
4468;SDS011;2247;42.666;23.292;2023-04-10T10:53:30;15.23;;;8.13;;
4468;SDS011;2247;42.666;23.292;2023-04-10T10:55:58;12.73;;;8.33;;
4468;SDS011;2247;42.666;23.292;2023-04-10T10:58:48;10.07;;;8.33;;
4468;SDS011;2247;42.666;23.292;2023-04-10T11:01:16;9.37;;;7.97;;
4468;SDS011;2247;42.666;23.292;2023-04-10T11:03:44;10.90;;;8.40;;
4468;SDS011;2247;42.666;23.292;2023-04-10T11:06:13;10.30;;;8.37;;
4468;SDS011;2247;42.666;23.292;2023-04-10T11:08:44;11.00;;;8.70;;
4468;SDS011;2247;42.666;23.292;2023-04-10T11:11:18;10.47;;;8.97;;
4468;SDS011;2247;42.666;23.292;2023-04-10T11:16:44;9.90;;;8.13;;
4468;SDS011;2247;42.666;23.292;2023-04-10T11:19:12;9.83;;;7.87;;
4468;SDS011;2247;42.666;23.292;2023-04-10T11:24:28;10.00;;;8.07;;
4468;SDS011;2247;42.666;23.292;2023-04-10T11:30:32;10.83;;;7.67;;
4468;SDS011;2247;42.666;23.292;2023-04-10T11:33:00;9.23;;;7.40;;
4468;SDS011;2247;42.666;23.292;2023-04-10T11:35:29;8.80;;;7.87;;
4468;SDS011;2247;42.666;23.292;2023-04-10T11:38:10;10.53;;;7.60;;
4468;SDS011;2247;42.666;23.292;2023-04-10T11:40:58;9.63;;;7.83;;
4468;SDS011;2247;42.666;23.292;2023-04-10T11:43:27;7.53;;;6.73;;
4468;SDS011;2247;42.666;23.292;2023-04-10T11:46:03;9.60;;;8.20;;
4468;SDS011;2247;42.666;23.292;2023-04-10T11:48:31;10.50;;;8.13;;
4468;SDS011;2247;42.666;23.292;2023-04-10T11:51:05;12.30;;;8.90;;
4468;SDS011;2247;42.666;23.292;2023-04-10T11:53:33;11.20;;;8.70;;
4468;SDS011;2247;42.666;23.292;2023-04-10T11:55:59;9.10;;;8.10;;
4468;SDS011;2247;42.666;23.292;2023-04-10T11:58:27;8.40;;;7.50;;
4468;SDS011;2247;42.666;23.292;2023-04-10T12:00:58;9.90;;;6.63;;
4468;SDS011;2247;42.666;23.292;2023-04-10T12:03:34;11.50;;;7.87;;
4468;SDS011;2247;42.666;23.292;2023-04-10T12:06:04;9.30;;;7.07;;
4468;SDS011;2247;42.666;23.292;2023-04-10T12:08:33;8.90;;;7.33;;
4468;SDS011;2247;42.666;23.292;2023-04-10T12:11:01;7.40;;;6.60;;
4468;SDS011;2247;42.666;23.292;2023-04-10T12:13:29;7.17;;;6.47;;
4468;SDS011;2247;42.666;23.292;2023-04-10T12:15:57;9.57;;;7.07;;
4468;SDS011;2247;42.666;23.292;2023-04-10T12:18:26;6.93;;;6.17;;
4468;SDS011;2247;42.666;23.292;2023-04-10T12:20:55;7.60;;;6.50;;
4468;SDS011;2247;42.666;23.292;2023-04-10T12:23:23;10.87;;;8.20;;
4468;SDS011;2247;42.666;23.292;2023-04-10T12:25:51;10.87;;;7.17;;
4468;SDS011;2247;42.666;23.292;2023-04-10T12:28:19;12.77;;;9.43;;
4468;SDS011;2247;42.666;23.292;2023-04-10T12:30:48;10.13;;;7.77;;
4468;SDS011;2247;42.666;23.292;2023-04-10T12:33:20;7.50;;;6.33;;
4468;SDS011;2247;42.666;23.292;2023-04-10T12:35:48;9.50;;;7.10;;
4468;SDS011;2247;42.666;23.292;2023-04-10T12:41:06;9.40;;;7.70;;
4468;SDS011;2247;42.666;23.292;2023-04-10T12:43:35;10.33;;;7.20;;
4468;SDS011;2247;42.666;23.292;2023-04-10T12:46:05;7.23;;;5.00;;
4468;SDS011;2247;42.666;23.292;2023-04-10T12:48:33;5.77;;;4.60;;
4468;SDS011;2247;42.666;23.292;2023-04-10T12:51:00;6.00;;;5.10;;
4468;SDS011;2247;42.666;23.292;2023-04-10T12:53:28;5.83;;;5.30;;
4468;SDS011;2247;42.666;23.292;2023-04-10T12:55:57;6.30;;;5.03;;
4468;SDS011;2247;42.666;23.292;2023-04-10T12:58:29;4.40;;;4.00;;
4468;SDS011;2247;42.666;23.292;2023-04-10T13:00:57;4.00;;;3.70;;
4468;SDS011;2247;42.666;23.292;2023-04-10T13:03:28;9.47;;;4.53;;
4468;SDS011;2247;42.666;23.292;2023-04-10T13:05:55;6.10;;;4.50;;
4468;SDS011;2247;42.666;23.292;2023-04-10T13:08:21;6.30;;;4.80;;
4468;SDS011;2247;42.666;23.292;2023-04-10T13:10:48;5.90;;;4.90;;
4468;SDS011;2247;42.666;23.292;2023-04-10T13:13:17;5.93;;;5.10;;
4468;SDS011;2247;42.666;23.292;2023-04-10T13:15:44;5.43;;;4.93;;
4468;SDS011;2247;42.666;23.292;2023-04-10T13:18:10;5.40;;;4.80;;
4468;SDS011;2247;42.666;23.292;2023-04-10T13:20:39;6.93;;;5.33;;
4468;SDS011;2247;42.666;23.292;2023-04-10T13:23:07;7.23;;;6.37;;
4468;SDS011;2247;42.666;23.292;2023-04-10T13:25:36;8.20;;;6.37;;
4468;SDS011;2247;42.666;23.292;2023-04-10T13:28:05;7.80;;;6.60;;
4468;SDS011;2247;42.666;23.292;2023-04-10T13:30:37;8.10;;;7.10;;
4468;SDS011;2247;42.666;23.292;2023-04-10T13:33:06;7.47;;;6.67;;
4468;SDS011;2247;42.666;23.292;2023-04-10T13:35:33;8.33;;;7.17;;
4468;SDS011;2247;42.666;23.292;2023-04-10T13:38:01;10.17;;;8.17;;
4468;SDS011;2247;42.666;23.292;2023-04-10T13:40:29;11.53;;;7.97;;
4468;SDS011;2247;42.666;23.292;2023-04-10T13:42:56;8.50;;;7.57;;
4468;SDS011;2247;42.666;23.292;2023-04-10T13:45:24;10.37;;;8.47;;
4468;SDS011;2247;42.666;23.292;2023-04-10T13:47:53;10.83;;;8.23;;
4468;SDS011;2247;42.666;23.292;2023-04-10T13:50:20;10.63;;;8.67;;
4468;SDS011;2247;42.666;23.292;2023-04-10T13:52:47;11.60;;;8.90;;
4468;SDS011;2247;42.666;23.292;2023-04-10T13:55:14;11.43;;;9.17;;
4468;SDS011;2247;42.666;23.292;2023-04-10T13:57:42;10.70;;;8.60;;
4468;SDS011;2247;42.666;23.292;2023-04-10T14:00:09;11.47;;;8.93;;
4468;SDS011;2247;42.666;23.292;2023-04-10T14:02:37;11.60;;;9.00;;
4468;SDS011;2247;42.666;23.292;2023-04-10T14:05:06;10.90;;;9.37;;
4468;SDS011;2247;42.666;23.292;2023-04-10T14:07:34;11.60;;;8.60;;
4468;SDS011;2247;42.666;23.292;2023-04-10T14:10:01;10.37;;;8.83;;
4468;SDS011;2247;42.666;23.292;2023-04-10T14:12:28;10.63;;;8.10;;
4468;SDS011;2247;42.666;23.292;2023-04-10T14:14:55;11.80;;;8.47;;
4468;SDS011;2247;42.666;23.292;2023-04-10T14:17:22;10.70;;;8.57;;
4468;SDS011;2247;42.666;23.292;2023-04-10T14:19:50;8.73;;;7.57;;
4468;SDS011;2247;42.666;23.292;2023-04-10T14:22:19;15.33;;;8.30;;
4468;SDS011;2247;42.666;23.292;2023-04-10T14:24:47;10.87;;;8.90;;
4468;SDS011;2247;42.666;23.292;2023-04-10T14:27:14;8.93;;;7.70;;
4468;SDS011;2247;42.666;23.292;2023-04-10T14:29:42;8.10;;;6.93;;
4468;SDS011;2247;42.666;23.292;2023-04-10T14:32:09;8.90;;;7.13;;
4468;SDS011;2247;42.666;23.292;2023-04-10T14:34:43;9.53;;;6.40;;
4468;SDS011;2247;42.666;23.292;2023-04-10T14:37:14;6.67;;;6.00;;
4468;SDS011;2247;42.666;23.292;2023-04-10T14:39:46;6.73;;;5.90;;
4468;SDS011;2247;42.666;23.292;2023-04-10T14:42:14;5.57;;;5.00;;
4468;SDS011;2247;42.666;23.292;2023-04-10T14:44:41;7.10;;;5.00;;
4468;SDS011;2247;42.666;23.292;2023-04-10T14:47:09;5.67;;;5.07;;
4468;SDS011;2247;42.666;23.292;2023-04-10T14:49:36;5.50;;;5.00;;
4468;SDS011;2247;42.666;23.292;2023-04-10T14:52:03;6.10;;;5.50;;
4468;SDS011;2247;42.666;23.292;2023-04-10T14:54:30;6.17;;;5.20;;
4468;SDS011;2247;42.666;23.292;2023-04-10T14:56:59;7.70;;;5.53;;
4468;SDS011;2247;42.666;23.292;2023-04-10T14:59:26;7.70;;;6.63;;
4468;SDS011;2247;42.666;23.292;2023-04-10T15:01:53;7.80;;;6.57;;
4468;SDS011;2247;42.666;23.292;2023-04-10T15:04:20;9.40;;;6.60;;
4468;SDS011;2247;42.666;23.292;2023-04-10T15:06:47;14.30;;;6.30;;
4468;SDS011;2247;42.666;23.292;2023-04-10T15:09:16;8.20;;;7.10;;
4468;SDS011;2247;42.666;23.292;2023-04-10T15:11:43;7.33;;;6.50;;
4468;SDS011;2247;42.666;23.292;2023-04-10T15:14:12;7.90;;;6.50;;
4468;SDS011;2247;42.666;23.292;2023-04-10T15:16:39;7.70;;;6.50;;
4468;SDS011;2247;42.666;23.292;2023-04-10T15:19:07;8.40;;;6.40;;
4468;SDS011;2247;42.666;23.292;2023-04-10T15:21:34;7.80;;;6.27;;
4468;SDS011;2247;42.666;23.292;2023-04-10T15:24:00;7.47;;;5.67;;